Time;durP1;ratioP1;P1;durP2;ratioP2;P2;SDS_P1;SDS_P2;PMS_P1;PMS_P2;Temp;Humidity;BMP_temperature;BMP_pressure;BME280_temperature;BME280_humidity;BME280_pressure;Samples;Min_cycle;Max_cycle;Signal;HPM_P1;HPM_P2
2022/05/18 00:00:29;;;;;;;;;4.00;4.00;;;;;26.64;70.98;101477.63;5078279;28;45338;-79
2022/05/18 00:03:16;;;;;;;;;6.75;6.00;;;;;26.63;71.80;101489.13;5077679;27;46328;-79
2022/05/18 00:05:43;;;;;;;;;5.25;5.00;;;;;26.57;71.73;101488.31;5078967;27;45295;-79
2022/05/18 00:08:09;;;;;;;;;5.75;4.25;;;;;26.54;72.07;101498.09;5078841;28;45332;-79
2022/05/18 00:10:37;;;;;;;;;5.00;5.00;;;;;26.47;72.55;101491.97;5078030;28;45224;-79
2022/05/18 00:13:04;;;;;;;;;6.00;6.00;;;;;26.40;73.01;101498.25;5077120;27;46685;-79
2022/05/18 00:15:30;;;;;;;;;9.50;7.25;;;;;26.33;73.47;101496.53;5077409;28;45390;-79
2022/05/18 00:17:57;;;;;;;;;6.25;5.25;;;;;26.27;74.20;101501.03;5077783;28;45305;-79
2022/05/18 00:20:23;;;;;;;;;6.75;5.00;;;;;26.22;75.79;101499.31;5077422;27;45493;-79
2022/05/18 00:22:55;;;;;;;;;6.00;6.00;;;;;26.18;75.45;101505.53;5076593;28;45472;-79
2022/05/18 00:25:24;;;;;;;;;5.50;5.00;;;;;26.15;76.38;101506.44;5077122;28;45695;-79
2022/05/18 00:27:50;;;;;;;;;5.50;5.50;;;;;26.11;77.42;101515.31;5077380;28;45206;-79
2022/05/18 00:30:18;;;;;;;;;7.50;7.00;;;;;26.02;78.34;101512.72;5077206;28;45465;-79
2022/05/18 00:32:44;;;;;;;;;5.00;5.00;;;;;25.96;78.73;101513.66;5078165;28;45403;-80
2022/05/18 00:35:11;;;;;;;;;5.50;5.00;;;;;25.93;79.37;101513.66;5077853;28;45437;-80
2022/05/18 00:37:37;;;;;;;;;6.25;6.25;;;;;25.85;82.02;101521.72;5077272;28;45279;-80
2022/05/18 00:40:03;;;;;;;;;7.00;7.00;;;;;25.79;83.51;101514.69;5077112;27;45552;-79
2022/05/18 00:42:29;;;;;;;;;7.25;7.00;;;;;25.73;84.30;101514.69;5076731;28;45315;-79
2022/05/18 00:44:55;;;;;;;;;7.00;4.25;;;;;25.68;84.35;101518.28;5076917;28;45332;-80
2022/05/18 00:47:21;;;;;;;;;8.75;6.25;;;;;25.63;85.88;101520.97;5076797;28;45456;-80
2022/05/18 00:50:00;;;;;;;;;9.00;6.50;;;;;25.58;85.77;101536.03;5076963;27;45384;-79
2022/05/18 00:52:32;;;;;;;;;6.25;6.25;;;;;25.52;86.37;101536.06;5058083;28;46391;-79
2022/05/18 00:55:00;;;;;;;;;7.00;6.00;;;;;25.47;87.16;101531.69;5076512;28;45347;-80
2022/05/18 00:57:30;;;;;;;;;7.00;6.75;;;;;25.43;87.37;101535.22;5077471;28;45373;-79
2022/05/18 01:00:07;;;;;;;;;5.75;5.75;;;;;25.39;87.75;101535.22;5079008;27;45439;-79
2022/05/18 01:02:36;;;;;;;;;6.00;5.00;;;;;25.38;88.03;101544.06;5076565;28;47598;-79
2022/05/18 01:05:06;;;;;;;;;6.00;6.00;;;;;25.32;88.82;101559.09;5076412;28;45753;-79
2022/05/18 01:07:38;;;;;;;;;6.50;6.00;;;;;25.20;88.07;101551.22;5076705;28;45366;-79
2022/05/18 01:10:05;;;;;;;;;6.25;5.25;;;;;25.17;89.23;101559.19;5058050;28;45512;-80
2022/05/18 01:12:31;;;;;;;;;6.25;6.25;;;;;25.11;90.72;101548.59;5076354;28;46295;-79
2022/05/18 01:15:02;;;;;;;;;8.00;5.25;;;;;25.07;90.69;101550.38;5076242;28;45350;-79
2022/05/18 01:17:36;;;;;;;;;8.25;5.50;;;;;25.03;92.53;101551.28;5076590;28;45308;-79
2022/05/18 01:20:06;;;;;;;;;5.50;5.00;;;;;24.98;92.73;101561.91;5076813;28;45310;-79
2022/05/18 01:22:50;;;;;;;;;7.00;6.00;;;;;24.93;93.71;101568.97;5076245;28;46278;-79
2022/05/18 01:25:50;;;;;;;;;9.50;8.00;;;;;24.87;94.06;101563.69;5077441;27;45828;-79
2022/05/18 01:28:15;;;;;;;;;6.75;6.00;;;;;24.78;94.98;101561.94;5076270;28;45434;-79
2022/05/18 01:30:46;;;;;;;;;6.00;5.50;;;;;24.70;95.71;101559.31;5076549;28;45490;-79
2022/05/18 01:33:13;;;;;;;;;7.00;5.50;;;;;24.65;95.67;101557.53;5075890;27;45484;-79
2022/05/18 01:35:43;;;;;;;;;5.50;5.50;;;;;24.60;96.94;101554.03;5075722;28;45287;-79
2022/05/18 01:38:13;;;;;;;;;5.50;5.50;;;;;24.58;98.07;101567.25;5075539;28;45492;-79
2022/05/18 01:40:56;;;;;;;;;5.00;5.00;;;;;24.53;99.20;101572.53;5076524;28;45427;-79
2022/05/18 01:43:24;;;;;;;;;7.00;6.50;;;;;24.49;98.83;101575.19;5076289;28;45591;-79
2022/05/18 01:45:59;;;;;;;;;4.50;4.50;;;;;24.44;99.49;101575.19;5075001;28;45725;-79
2022/05/18 01:48:32;;;;;;;;;7.00;7.00;;;;;24.42;99.53;101576.97;5076587;28;45484;-79
2022/05/18 01:50:59;;;;;;;;;5.00;5.00;;;;;24.38;100.00;101572.56;5077566;28;45418;-79
2022/05/18 01:53:26;;;;;;;;;7.00;5.00;;;;;24.32;100.00;101573.47;5076673;28;46404;-79
2022/05/18 01:55:51;;;;;;;;;6.00;6.00;;;;;24.28;100.00;101574.31;5076263;28;45729;-80
2022/05/18 01:58:17;;;;;;;;;9.00;6.25;;;;;24.24;100.00;101577.88;5075781;28;45355;-79
2022/05/18 02:00:44;;;;;;;;;7.00;7.00;;;;;24.21;100.00;101589.31;5075644;28;45295;-79
2022/05/18 02:03:10;;;;;;;;;5.50;4.50;;;;;24.17;100.00;101597.25;5075985;28;45360;-79
2022/05/18 02:05:36;;;;;;;;;5.00;5.00;;;;;24.13;100.00;101603.44;5079395;27;45181;-79
2022/05/18 02:08:03;;;;;;;;;7.00;5.50;;;;;24.06;100.00;101605.19;5079261;28;45437;-79
2022/05/18 02:10:30;;;;;;;;;5.00;5.00;;;;;24.01;100.00;101610.47;5079270;27;45505;-79
2022/05/18 02:12:55;;;;;;;;;6.50;6.50;;;;;23.97;100.00;101608.69;5079372;28;46043;-79
2022/05/18 02:15:23;;;;;;;;;6.50;6.00;;;;;23.93;100.00;101607.78;5079225;28;45332;-78
2022/05/18 02:17:50;;;;;;;;;4.25;4.25;;;;;23.85;100.00;101604.25;5079371;28;45253;-79
2022/05/18 02:20:16;;;;;;;;;6.50;5.50;;;;;23.76;100.00;101607.75;5079028;28;45272;-79
2022/05/18 02:22:42;;;;;;;;;5.00;5.00;;;;;23.74;100.00;101619.19;5078892;28;46219;-79
2022/05/18 02:25:08;;;;;;;;;4.50;4.50;;;;;23.67;100.00;101612.09;5078598;28;45528;-79
2022/05/18 02:27:34;;;;;;;;;6.25;4.75;;;;;23.61;100.00;101621.78;5079027;27;45393;-79
2022/05/18 02:30:01;;;;;;;;;5.00;5.00;;;;;23.58;100.00;101629.72;5079068;28;45427;-79
2022/05/18 02:32:27;;;;;;;;;3.50;3.50;;;;;23.50;100.00;101640.25;5078813;28;45223;-79
2022/05/18 02:34:52;;;;;;;;;4.25;4.25;;;;;23.47;100.00;101642.00;5079177;27;45359;-79
2022/05/18 02:37:18;;;;;;;;;4.25;4.25;;;;;23.43;100.00;101635.81;5078733;28;45319;-79
2022/05/18 02:39:43;;;;;;;;;3.75;3.75;;;;;23.40;100.00;101635.78;5079193;28;45501;-79
2022/05/18 02:42:09;;;;;;;;;3.75;3.00;;;;;23.37;100.00;101642.84;5060419;27;45334;-79
2022/05/18 02:44:35;;;;;;;;;3.25;2.25;;;;;23.33;100.00;101645.44;5079282;28;45313;-79
2022/05/18 02:47:01;;;;;;;;;2.00;1.50;;;;;23.26;96.73;101645.44;5060340;28;45347;-79
2022/05/18 02:49:27;;;;;;;;;3.00;3.00;;;;;23.18;97.37;101640.94;5079057;28;45436;-78
2022/05/18 02:51:53;;;;;;;;;2.00;2.00;;;;;23.14;98.17;101641.81;5078920;27;45541;-79
2022/05/18 02:57:05;;;;;;;;;4.50;2.00;;;;;23.13;98.55;101641.78;5078237;27;45445;-80
2022/05/18 02:59:31;;;;;;;;;2.50;2.50;;;;;23.18;98.15;101643.56;5078962;28;45401;-78
2022/05/18 03:01:57;;;;;;;;;2.00;2.00;;;;;23.21;99.17;101637.47;5078198;28;45563;-79
2022/05/18 03:04:23;;;;;;;;;2.50;2.50;;;;;23.23;99.43;101648.03;5078583;27;45331;-79
2022/05/18 03:06:49;;;;;;;;;3.25;3.00;;;;;23.23;100.00;101653.34;5060992;28;45296;-79
2022/05/18 03:09:15;;;;;;;;;4.75;4.75;;;;;23.22;100.00;101655.06;5079612;27;45192;-79
2022/05/18 03:11:41;;;;;;;;;4.75;4.00;;;;;23.22;100.00;101651.56;5078050;28;46602;-79
2022/05/18 03:14:06;;;;;;;;;4.00;4.00;;;;;23.13;100.00;101661.19;5077605;27;45681;-79
2022/05/18 03:16:32;;;;;;;;;3.00;3.00;;;;;23.03;100.00;101652.28;5078017;27;45410;-79
2022/05/18 03:18:58;;;;;;;;;4.00;3.00;;;;;22.98;100.00;101656.69;5078340;28;45421;-79
2022/05/18 03:24:09;;;;;;;;;3.00;3.00;;;;;22.90;97.27;101674.19;5077593;28;45466;-79
2022/05/18 03:26:35;;;;;;;;;5.25;2.75;;;;;22.80;96.01;101675.00;5078103;28;45447;-79
2022/05/18 03:29:00;;;;;;;;;2.00;2.00;;;;;22.70;95.30;101663.50;5078023;28;45355;-79
2022/05/18 03:31:27;;;;;;;;;1.75;1.75;;;;;22.63;94.24;101667.84;5078396;28;45987;-79
2022/05/18 03:33:58;;;;;;;;;3.00;2.00;;;;;22.52;92.60;101683.56;5079182;28;45256;-80
2022/05/18 03:36:24;;;;;;;;;2.00;2.00;;;;;22.44;92.70;101679.13;5079825;28;45439;-79
2022/05/18 03:38:50;;;;;;;;;3.50;2.25;;;;;22.37;93.34;101686.91;5078171;28;45445;-79
2022/05/18 03:41:17;;;;;;;;;2.00;2.00;;;;;22.32;94.39;101690.38;5076873;28;45360;-79
2022/05/18 03:43:43;;;;;;;;;3.00;2.00;;;;;22.26;95.62;101689.47;5077424;27;45253;-79
2022/05/18 03:46:10;;;;;;;;;1.00;1.00;;;;;22.26;96.50;101689.47;5077649;28;45245;-79
2022/05/18 03:48:36;;;;;;;;;1.00;1.00;;;;;22.23;97.07;101701.75;5078036;28;45547;-79
2022/05/18 03:51:05;;;;;;;;;2.75;1.75;;;;;22.19;98.21;101689.38;5077276;27;46069;-79
2022/05/18 03:53:31;;;;;;;;;2.00;2.00;;;;;22.14;98.90;101697.25;5077539;28;45653;-79
2022/05/18 03:55:56;;;;;;;;;5.25;2.75;;;;;22.13;100.00;101706.03;5077783;28;45432;-79
2022/05/18 03:58:22;;;;;;;;;3.00;3.00;;;;;22.11;100.00;101716.56;5078427;28;45253;-79
2022/05/18 04:00:50;;;;;;;;;3.00;3.00;;;;;22.10;100.00;101698.97;5078276;28;45350;-79
2022/05/18 04:03:18;;;;;;;;;3.00;3.00;;;;;22.11;100.00;101710.38;5077249;28;45260;-79
2022/05/18 04:05:44;;;;;;;;;2.00;2.00;;;;;22.07;100.00;101712.13;5077193;28;45454;-79
2022/05/18 04:08:11;;;;;;;;;4.75;3.25;;;;;22.07;100.00;101721.78;5077491;28;45451;-79
2022/05/18 04:10:38;;;;;;;;;3.00;2.00;;;;;22.07;100.00;101713.88;5077187;27;45340;-78
2022/05/18 04:13:05;;;;;;;;;2.00;2.00;;;;;22.07;99.63;101717.38;5076913;28;45335;-79
2022/05/18 04:15:31;;;;;;;;;2.00;2.00;;;;;22.06;98.29;101723.53;5077456;28;45251;-79
2022/05/18 04:17:59;;;;;;;;;1.75;1.00;;;;;22.03;97.61;101722.59;5077171;28;45620;-79
2022/05/18 04:20:25;;;;;;;;;4.00;3.00;;;;;22.01;97.13;101722.59;5077275;27;45445;-79
2022/05/18 04:22:51;;;;;;;;;2.00;2.00;;;;;22.00;96.90;101719.94;5058842;28;45356;-79
2022/05/18 04:25:20;;;;;;;;;1.00;1.00;;;;;21.94;96.21;101720.72;5076645;28;45230;-79
2022/05/18 04:27:47;;;;;;;;;2.75;1.25;;;;;21.92;95.62;101718.09;5077503;27;45497;-79
2022/05/18 04:30:18;;;;;;;;;2.75;2.25;;;;;21.92;94.32;101726.00;5075997;28;45406;-78
2022/05/18 04:32:44;;;;;;;;;2.75;2.00;;;;;21.92;94.36;101725.13;5075451;28;45514;-79
2022/05/18 04:35:13;;;;;;;;;2.00;2.00;;;;;21.91;94.30;101726.88;5054683;28;45470;-79
2022/05/18 04:37:39;;;;;;;;;1.00;1.00;;;;;21.91;93.69;101731.28;5075404;27;45537;-78
2022/05/18 04:40:06;;;;;;;;;2.00;2.00;;;;;21.89;93.50;101731.22;5075780;27;46038;-79
2022/05/18 04:42:32;;;;;;;;;2.00;2.00;;;;;21.88;93.00;101742.63;5076157;28;45766;-79
2022/05/18 04:44:58;;;;;;;;;1.50;1.00;;;;;21.90;91.91;101740.91;5076277;28;45252;-79
2022/05/18 04:47:25;;;;;;;;;0.25;0.25;;;;;21.91;92.09;101749.72;5077654;28;45545;-79
2022/05/18 04:49:51;;;;;;;;;4.75;1.00;;;;;21.91;92.05;101755.88;5076794;27;46286;-78
2022/05/18 04:52:21;;;;;;;;;1.00;1.00;;;;;21.91;91.20;101755.88;5077809;27;45749;-77
2022/05/18 04:54:48;;;;;;;;;2.00;2.00;;;;;21.88;90.61;101754.94;5078075;28;45543;-79
2022/05/18 04:57:15;;;;;;;;;1.25;1.25;;;;;21.86;90.38;101761.94;5077321;28;45382;-79
2022/05/18 04:59:41;;;;;;;;;2.00;2.00;;;;;21.85;90.95;101753.16;5075228;28;45635;-78
2022/05/18 05:02:07;;;;;;;;;1.00;1.00;;;;;21.87;90.56;101759.31;5075637;28;45822;-79
2022/05/18 05:04:34;;;;;;;;;3.25;1.00;;;;;21.87;90.23;101759.31;5075678;27;45488;-79
2022/05/18 05:07:00;;;;;;;;;2.00;1.00;;;;;21.86;89.69;101754.94;5083282;27;45597;-79
2022/05/18 05:09:26;;;;;;;;;1.25;1.25;;;;;21.85;89.64;101761.06;5078289;28;45438;-79
2022/05/18 05:11:53;;;;;;;;;3.00;2.00;;;;;21.87;89.63;101764.59;5076019;28;45267;-79
2022/05/18 05:14:19;;;;;;;;;2.00;1.25;;;;;21.86;89.47;101762.84;5075974;27;45361;-79
2022/05/18 05:16:46;;;;;;;;;1.00;1.00;;;;;21.87;90.36;101772.50;5077054;28;45411;-78
2022/05/18 05:19:12;;;;;;;;;1.75;1.75;;;;;21.87;89.91;101776.91;5058163;28;45896;-79
2022/05/18 05:21:45;;;;;;;;;2.00;2.00;;;;;21.84;89.92;101782.13;5078326;27;45506;-78
2022/05/18 05:24:12;;;;;;;;;1.00;1.00;;;;;21.82;89.99;101791.75;5078409;27;45426;-79
2022/05/18 05:26:39;;;;;;;;;1.75;1.75;;;;;21.78;90.41;101799.66;5076517;28;45402;-79
2022/05/18 05:29:06;;;;;;;;;3.00;1.75;;;;;21.80;93.25;101800.56;5075495;28;46039;-82
2022/05/18 05:31:32;;;;;;;;;1.00;1.00;;;;;21.87;90.07;101801.50;5079454;27;45910;-76
2022/05/18 05:33:58;;;;;;;;;1.00;1.00;;;;;21.82;89.28;101802.31;5084780;27;45305;-78
2022/05/18 05:36:26;;;;;;;;;1.75;1.75;;;;;21.79;89.01;101796.16;5076679;28;45258;-78
2022/05/18 05:38:52;;;;;;;;;1.50;1.00;;;;;21.78;88.94;101804.00;5079731;27;45990;-79
2022/05/18 05:41:18;;;;;;;;;3.00;2.00;;;;;21.77;88.77;101802.25;5079136;27;45420;-78
2022/05/18 05:43:44;;;;;;;;;1.00;1.00;;;;;21.79;89.01;101806.69;5079925;28;45417;-80
2022/05/18 05:46:15;;;;;;;;;1.75;1.00;;;;;21.79;89.31;101816.34;5080139;28;45377;-79
2022/05/18 05:48:44;;;;;;;;;1.00;1.00;;;;;21.75;89.32;101822.44;5079328;28;45767;-76
2022/05/18 05:51:13;;;;;;;;;1.00;1.00;;;;;21.73;88.72;101818.91;5078247;27;45829;-76
2022/05/18 05:53:46;;;;;;;;;2.00;2.00;;;;;21.72;89.42;101814.47;5078143;28;45481;-77
2022/05/18 05:56:14;;;;;;;;;2.00;1.00;;;;;21.73;89.13;101816.25;5076866;27;45672;-79
2022/05/18 05:58:43;;;;;;;;;1.00;1.00;;;;;21.76;89.15;101813.63;5082523;27;46364;-76
2022/05/18 06:01:11;;;;;;;;;2.75;1.50;;;;;21.82;88.66;101815.47;5104546;27;45829;-75
2022/05/18 06:03:38;;;;;;;;;1.00;1.00;;;;;21.87;87.91;101817.31;5090014;27;45311;-75
2022/05/18 06:06:05;;;;;;;;;2.00;1.50;;;;;21.89;87.52;101823.50;5078308;27;45682;-74
2022/05/18 06:08:32;;;;;;;;;1.00;1.00;;;;;21.91;87.37;101818.28;5085231;27;46061;-75
2022/05/18 06:10:59;;;;;;;;;1.25;1.25;;;;;21.92;87.21;101820.06;5081992;27;45443;-73
2022/05/18 06:13:26;;;;;;;;;1.00;1.00;;;;;21.91;86.98;101823.56;5079872;28;45335;-75
2022/05/18 06:15:52;;;;;;;;;1.00;1.00;;;;;21.91;86.44;101827.06;5079857;28;45263;-75
2022/05/18 06:18:18;;;;;;;;;2.00;2.00;;;;;21.94;86.26;101823.56;5078716;28;45502;-75
2022/05/18 06:20:47;;;;;;;;;2.00;1.00;;;;;21.99;85.82;101831.53;5078657;28;45487;-74
2022/05/18 06:23:14;;;;;;;;;1.00;1.00;;;;;21.98;85.38;101830.66;5078699;27;45327;-74
2022/05/18 06:25:40;;;;;;;;;0.50;0.50;;;;;21.98;84.42;101833.31;5079179;28;45363;-77
2022/05/18 06:28:07;;;;;;;;;1.00;1.00;;;;;21.99;84.10;101835.09;5060362;28;45638;-75
2022/05/18 06:30:33;;;;;;;;;1.00;1.00;;;;;22.01;83.55;101832.44;5078729;28;45201;-76
2022/05/18 06:32:59;;;;;;;;;1.75;1.75;;;;;22.04;83.51;101836.00;5078657;28;45211;-76
2022/05/18 06:35:25;;;;;;;;;1.00;1.00;;;;;22.11;81.94;101837.88;5082729;27;45605;-75
2022/05/18 06:37:50;;;;;;;;;1.00;1.00;;;;;22.13;81.56;101829.13;5078215;27;46374;-76
2022/05/18 06:40:18;;;;;;;;;2.75;1.75;;;;;22.18;81.92;101828.31;5078556;28;45367;-77
2022/05/18 06:42:45;;;;;;;;;2.00;0.50;;;;;22.24;80.96;101833.66;5078471;28;45488;-75
2022/05/18 06:45:13;;;;;;;;;0.00;0.00;;;;;22.27;81.32;101827.50;5077136;28;45326;-75
2022/05/18 06:47:39;;;;;;;;;3.00;1.00;;;;;22.29;80.71;101832.84;5078343;28;46057;-74
2022/05/18 06:50:07;;;;;;;;;1.00;1.00;;;;;22.25;80.93;101838.06;5066637;28;45535;-75
2022/05/18 06:52:32;;;;;;;;;1.00;1.00;;;;;22.25;80.78;101835.41;5077028;28;45560;-75
2022/05/18 06:54:58;;;;;;;;;1.00;1.00;;;;;22.27;81.01;101831.06;5078062;27;45671;-76
2022/05/18 06:57:24;;;;;;;;;2.00;1.00;;;;;22.29;80.36;101828.44;5087293;27;46038;-75
2022/05/18 06:59:49;;;;;;;;;1.00;1.00;;;;;22.30;80.52;101824.94;5078136;28;45383;-75
2022/05/18 07:02:15;;;;;;;;;2.00;1.50;;;;;22.31;80.72;101816.16;5092122;27;45448;-76
2022/05/18 07:04:41;;;;;;;;;1.00;1.00;;;;;22.34;79.99;101825.84;5078248;27;45347;-78
2022/05/18 07:07:07;;;;;;;;;2.00;1.00;;;;;22.37;80.04;101817.97;5078283;28;45390;-79
2022/05/18 07:09:33;;;;;;;;;1.00;1.00;;;;;22.41;79.86;101815.41;5078423;28;45927;-80
2022/05/18 07:12:00;;;;;;;;;2.25;0.75;;;;;22.45;79.87;101821.63;5076764;28;45839;-79
2022/05/18 07:14:29;;;;;;;;;1.00;1.00;;;;;22.45;79.56;101803.16;5079063;28;45327;-79
2022/05/18 07:16:56;;;;;;;;;0.50;0.50;;;;;22.47;79.71;101817.25;5078587;27;46088;-78
2022/05/18 07:19:23;;;;;;;;;0.00;0.00;;;;;22.51;79.40;101819.06;5082108;27;45878;-79
2022/05/18 07:21:49;;;;;;;;;0.25;0.25;;;;;22.53;79.92;101814.66;5085792;27;45408;-77
2022/05/18 07:24:16;;;;;;;;;1.00;1.00;;;;;22.58;79.66;101827.91;5079085;27;45380;-82
2022/05/18 07:26:43;;;;;;;;;1.00;1.00;;;;;22.61;79.25;101820.03;5089127;27;45721;-79
2022/05/18 07:29:10;;;;;;;;;1.00;1.00;;;;;22.65;79.10;101818.31;5077628;27;45449;-79
2022/05/18 07:34:22;;;;;;;;;1.00;1.00;;;;;22.77;79.04;101818.44;5077690;28;45446;-80
2022/05/18 07:36:52;;;;;;;;;1.00;1.00;;;;;22.81;78.85;101819.34;5077895;28;45283;-80
2022/05/18 07:39:18;;;;;;;;;0.00;0.00;;;;;22.85;78.91;101816.75;5077632;28;45765;-76
2022/05/18 07:41:45;;;;;;;;;0.25;0.25;;;;;22.88;78.51;101821.22;5077756;27;45418;-80
2022/05/18 07:44:12;;;;;;;;;2.25;1.00;;;;;22.93;78.57;101822.13;5077617;27;45332;-79
2022/05/18 07:46:38;;;;;;;;;1.00;1.00;;;;;23.00;78.65;101828.34;5078779;28;46226;-79
2022/05/18 07:49:05;;;;;;;;;1.00;1.00;;;;;23.06;77.92;101824.88;5077479;28;45626;-79
2022/05/18 07:51:32;;;;;;;;;1.00;1.00;;;;;23.12;77.07;101823.19;5059684;28;45449;-80
2022/05/18 07:53:59;;;;;;;;;3.00;1.25;;;;;23.18;77.45;101823.22;5078344;27;45531;-78
2022/05/18 07:56:25;;;;;;;;;2.50;1.00;;;;;23.24;76.79;101824.19;5094615;27;46047;-79
2022/05/18 07:58:50;;;;;;;;;1.00;1.00;;;;;23.30;76.84;101819.84;5097632;27;45748;-80
2022/05/18 08:01:16;;;;;;;;;1.75;1.75;;;;;23.38;76.60;101817.25;5095370;27;45409;-79
2022/05/18 08:03:41;;;;;;;;;2.00;2.00;;;;;23.45;76.11;101819.06;5098205;27;45441;-80
2022/05/18 08:06:07;;;;;;;;;2.75;1.00;;;;;23.50;75.36;101824.41;5097482;27;46038;-79
2022/05/18 08:08:33;;;;;;;;;2.00;1.00;;;;;23.53;75.38;101816.50;5097792;27;45215;-79
2022/05/18 08:16:30;;;;;;;;;3.00;2.00;;;;;23.70;75.24;101819.25;5097520;27;45513;-79
2022/05/18 08:18:55;;;;;;;;;1.00;1.00;;;;;23.76;74.88;101814.00;5097728;27;45180;-78
2022/05/18 08:21:21;;;;;;;;;1.00;1.00;;;;;23.81;74.92;101806.94;5097221;27;45393;-79
2022/05/18 08:23:47;;;;;;;;;3.25;1.00;;;;;23.88;74.62;101812.28;5097681;27;45371;-80
2022/05/18 08:26:13;;;;;;;;;1.50;1.50;;;;;23.91;74.58;101818.47;5096868;27;46095;-80
2022/05/18 08:28:38;;;;;;;;;1.25;1.00;;;;;23.94;75.21;101814.97;5097219;27;45389;-80
2022/05/18 08:31:05;;;;;;;;;1.25;0.75;;;;;23.93;74.89;101810.53;5097225;27;45392;-79
2022/05/18 08:33:32;;;;;;;;;2.00;2.00;;;;;23.95;74.57;101815.03;5097687;27;45329;-79
2022/05/18 08:35:59;;;;;;;;;1.00;1.00;;;;;23.96;74.48;101807.97;5096924;27;46252;-80
2022/05/18 08:38:25;;;;;;;;;2.00;2.00;;;;;24.00;74.68;101803.56;5097268;27;45869;-80
2022/05/18 08:41:12;;;;;;;;;2.00;2.00;;;;;24.02;75.00;101802.72;5085665;27;45548;-79
2022/05/18 08:43:41;;;;;;;;;2.25;1.00;;;;;24.10;75.00;101800.06;5067483;28;45481;-80
2022/05/18 08:46:17;;;;;;;;;1.50;1.50;;;;;24.22;75.01;101800.13;5076067;28;45530;-79
2022/05/18 08:48:55;;;;;;;;;2.25;2.00;;;;;24.29;74.46;101805.47;5076684;28;45244;-79
2022/05/18 08:51:54;;;;;;;;;2.75;2.50;;;;;24.35;74.73;101801.03;5076332;28;45355;-81
2022/05/18 08:54:41;;;;;;;;;2.00;2.00;;;;;24.46;75.07;101802.88;5059011;28;45377;-80
2022/05/18 08:57:26;;;;;;;;;2.00;2.00;;;;;24.55;74.34;101810.84;5076337;28;45554;-80
2022/05/18 08:59:56;;;;;;;;;1.00;1.00;;;;;24.58;74.73;101801.13;5077075;27;45334;-81
2022/05/18 09:02:29;;;;;;;;;2.75;2.25;;;;;24.58;74.28;101800.22;5076905;28;45446;-80
2022/05/18 09:04:57;;;;;;;;;2.50;1.75;;;;;24.55;74.03;101801.13;5077123;28;45382;-80
2022/05/18 09:07:32;;;;;;;;;2.00;1.25;;;;;24.53;73.34;101805.53;5076647;28;46449;-80
2022/05/18 09:10:14;;;;;;;;;2.00;2.00;;;;;24.44;73.63;101805.50;5075916;27;45426;-80
2022/05/18 09:12:45;;;;;;;;;1.75;1.75;;;;;24.35;74.60;101801.03;5076179;27;45349;-80
2022/05/18 09:15:17;;;;;;;;;2.00;2.00;;;;;24.30;74.99;101792.22;5076499;27;45625;-80
2022/05/18 09:18:04;;;;;;;;;6.50;6.00;;;;;24.26;75.23;101801.03;5076312;27;45433;-81
2022/05/18 09:20:48;;;;;;;;;2.00;2.00;;;;;24.23;76.04;101801.91;5076233;28;45423;-80
2022/05/18 09:23:24;;;;;;;;;3.25;1.25;;;;;24.19;76.14;101792.16;5075797;28;45367;-80
2022/05/18 09:26:06;;;;;;;;;2.00;2.00;;;;;24.17;76.82;101790.41;5076571;28;45428;-81
2022/05/18 09:28:44;;;;;;;;;3.00;2.00;;;;;24.15;76.91;101785.13;5076090;28;46513;-80
2022/05/18 09:31:18;;;;;;;;;3.00;3.00;;;;;24.20;77.59;101786.00;5075886;28;45877;-80
2022/05/18 09:33:58;;;;;;;;;2.50;2.50;;;;;24.21;78.04;101784.25;5076291;28;45323;-81
2022/05/18 09:36:33;;;;;;;;;3.00;3.00;;;;;24.24;77.96;101784.28;5076838;27;45359;-81
2022/05/18 09:39:12;;;;;;;;;4.00;4.00;;;;;24.27;78.20;101786.91;5075866;28;45220;-81
2022/05/18 09:41:56;;;;;;;;;3.00;3.00;;;;;24.29;78.42;101782.50;5075621;28;45428;-81
2022/05/18 09:44:37;;;;;;;;;4.50;3.00;;;;;24.33;78.51;101778.13;5076434;28;45669;-81
2022/05/18 09:47:04;;;;;;;;;5.50;4.00;;;;;24.38;78.50;101773.72;5076066;28;45364;-80
2022/05/18 09:49:41;;;;;;;;;3.50;2.00;;;;;24.44;78.45;101781.66;5075727;28;46015;-81
2022/05/18 09:52:06;;;;;;;;;5.00;5.00;;;;;24.46;78.51;101765.81;5075702;28;45760;-80
2022/05/18 09:54:34;;;;;;;;;5.25;3.00;;;;;24.50;78.04;101772.88;5075859;28;45242;-80
2022/05/18 09:57:23;;;;;;;;;4.00;4.00;;;;;24.51;78.15;101764.91;5075892;28;45589;-80
2022/05/18 09:59:56;;;;;;;;;3.00;3.00;;;;;24.56;78.73;101764.94;5075852;28;46229;-81
2022/05/18 10:08:11;;;;;;;;;4.50;3.00;;;;;24.78;77.30;101762.38;5078324;27;45438;-79
2022/05/18 10:10:38;;;;;;;;;6.25;4.25;;;;;24.85;76.06;101761.47;5075414;28;46481;-80
2022/05/18 10:13:12;;;;;;;;;6.75;4.75;;;;;24.92;76.26;101755.28;5075407;27;45373;-79
2022/05/18 10:15:45;;;;;;;;;4.00;4.00;;;;;24.96;75.77;101750.88;5075631;28;45235;-80
2022/05/18 10:18:29;;;;;;;;;5.00;3.75;;;;;24.99;74.91;101749.13;5075634;27;45382;-80
2022/05/18 10:21:07;;;;;;;;;6.75;4.25;;;;;25.02;75.12;101746.44;5075394;27;46075;-80
2022/05/18 10:23:45;;;;;;;;;5.00;5.00;;;;;25.06;74.44;101735.88;5075396;28;45710;-80
2022/05/18 10:26:26;;;;;;;;;4.25;4.00;;;;;25.09;74.58;101741.16;5078622;28;45276;-80
2022/05/18 10:29:06;;;;;;;;;5.00;4.00;;;;;25.09;74.29;101741.16;5061042;27;45352;-80
2022/05/18 10:31:37;;;;;;;;;7.00;5.00;;;;;25.11;74.53;101734.06;5078812;28;45908;-81
2022/05/18 10:34:24;;;;;;;;;4.00;3.00;;;;;25.15;75.02;101725.25;5077539;28;45477;-78
2022/05/18 10:36:56;;;;;;;;;3.25;3.00;;;;;25.19;74.65;101727.88;5077923;28;45483;-80
2022/05/18 10:39:46;;;;;;;;;4.75;4.75;;;;;25.23;73.56;101717.28;5078919;27;45555;-85
2022/05/18 10:42:41;;;;;;;;;2.00;2.00;;;;;25.30;73.01;101714.63;5079425;27;46241;-84
2022/05/18 10:45:31;;;;;;;;;3.00;3.00;;;;;25.40;73.02;101712.84;5078949;28;45342;-84
2022/05/18 10:48:05;;;;;;;;;5.25;3.50;;;;;25.47;72.32;101711.06;5078282;27;45445;-77
2022/05/18 10:50:39;;;;;;;;;5.00;3.00;;;;;25.54;72.71;101701.34;5076949;27;45642;-83
2022/05/18 10:53:15;;;;;;;;;3.75;3.75;;;;;25.59;71.21;101707.53;5078008;28;45487;-79
2022/05/18 10:55:56;;;;;;;;;2.75;2.00;;;;;25.63;70.62;101704.84;5078310;28;45706;-76
2022/05/18 10:58:28;;;;;;;;;2.75;2.75;;;;;25.65;71.32;101700.38;5077537;27;45391;-79
2022/05/18 11:01:22;;;;;;;;;6.50;4.00;;;;;25.71;70.29;101699.50;5087835;28;45178;-90
2022/05/18 11:04:05;;;;;;;;;3.00;3.00;;;;;25.75;68.89;101703.03;5068596;28;45449;-78
2022/05/18 11:06:37;;;;;;;;;2.25;2.00;;;;;25.74;68.56;101701.28;5077416;28;45740;-82
2022/05/18 11:09:13;;;;;;;;;4.25;2.00;;;;;25.75;68.65;101700.38;5077773;27;45336;-80
2022/05/18 11:11:52;;;;;;;;;2.25;2.25;;;;;25.80;68.50;101698.56;5078320;28;45429;-78
2022/05/18 11:14:43;;;;;;;;;2.00;2.00;;;;;25.83;68.04;101697.66;5077210;28;45294;-78
2022/05/18 11:17:39;;;;;;;;;2.75;1.25;;;;;25.87;68.28;101699.44;5076018;27;45799;-80
2022/05/18 11:20:43;;;;;;;;;3.00;3.00;;;;;25.91;67.94;101696.75;5073724;28;45490;-80
2022/05/18 11:23:20;;;;;;;;;3.50;3.50;;;;;25.95;69.23;101692.31;5023546;28;45518;-80
2022/05/18 11:26:11;;;;;;;;;2.25;2.25;;;;;26.01;67.85;101689.63;5070737;28;45581;-78
2022/05/18 11:29:08;;;;;;;;;4.00;4.00;;;;;26.05;66.30;101690.50;5075835;28;46131;-79
2022/05/18 11:31:39;;;;;;;;;5.00;3.25;;;;;26.10;66.26;101692.28;5048134;28;45518;-77
2022/05/18 11:34:32;;;;;;;;;4.00;4.00;;;;;26.15;66.70;101689.59;5067112;27;45527;-83
2022/05/18 11:37:30;;;;;;;;;4.75;2.75;;;;;26.23;67.07;101682.44;5077153;28;45360;-80
2022/05/18 11:40:34;;;;;;;;;3.00;3.00;;;;;26.31;66.65;101674.44;5076599;28;45744;-79
2022/05/18 11:43:30;;;;;;;;;5.00;3.50;;;;;26.39;66.30;101672.59;5075941;28;45206;-78
2022/05/18 11:46:04;;;;;;;;;3.75;3.75;;;;;26.51;66.92;101668.09;5077937;27;45503;-78
2022/05/18 11:48:44;;;;;;;;;5.00;3.25;;;;;26.61;65.10;101664.47;5076367;27;46114;-77
2022/05/18 11:51:24;;;;;;;;;3.00;2.50;;;;;26.70;65.05;101667.03;5056490;28;45845;-78
2022/05/18 11:54:21;;;;;;;;;2.25;2.25;;;;;26.72;65.72;101659.94;5076177;27;45607;-77
2022/05/18 11:57:04;;;;;;;;;5.25;4.25;;;;;26.78;65.96;101655.50;5067113;27;45252;-78
2022/05/18 11:59:57;;;;;;;;;2.75;2.75;;;;;26.86;64.51;101661.63;5058452;28;47169;-78